Time;durP1;ratioP1;P1;durP2;ratioP2;P2;SDS_P1;SDS_P2;PMS_P1;PMS_P2;Temp;Humidity;BMP_temperature;BMP_pressure;BME280_temperature;BME280_humidity;BME280_pressure;Samples;Min_cycle;Max_cycle;Signal;HPM_P1;HPM_P2
2023/04/19 00:00:53;;;;;;;4.13;3.83;;;;;19.40;101522.00;;;;2079777;28;20220;-64
2023/04/19 00:01:53;;;;;;;4.10;3.80;;;;;19.40;101514.00;;;;2073506;28;20274;-64
2023/04/19 00:02:54;;;;;;;4.10;3.80;;;;;19.40;101512.00;;;;2071652;28;20241;-64
2023/04/19 00:03:55;;;;;;;3.85;3.55;;;;;19.50;101522.00;;;;2080604;28;20294;-64
2023/04/19 00:04:55;;;;;;;4.20;3.80;;;;;19.50;101523.00;;;;2080528;28;20216;-64
2023/04/19 00:05:58;;;;;;;4.57;4.27;;;;;19.50;101518.00;;;;2080583;28;20221;-64
2023/04/19 00:06:58;;;;;;;3.80;3.50;;;;;19.50;101514.00;;;;2079335;28;20742;-64
2023/04/19 00:07:58;;;;;;;3.70;3.40;;;;;19.50;101510.00;;;;2080445;28;20247;-64
2023/04/19 00:08:59;;;;;;;4.40;4.00;;;;;19.40;101509.00;;;;2079418;28;20247;-64
2023/04/19 00:09:59;;;;;;;3.90;3.60;;;;;19.40;101505.00;;;;2080244;28;20244;-64
2023/04/19 00:10:59;;;;;;;3.87;3.57;;;;;19.40;101507.00;;;;2080498;28;20225;-64
2023/04/19 00:12:00;;;;;;;4.33;4.03;;;;;19.40;101512.00;;;;2079554;28;20242;-64
2023/04/19 00:13:01;;;;;;;3.77;3.47;;;;;19.40;101509.00;;;;2071701;28;20213;-64
2023/04/19 00:14:01;;;;;;;4.07;3.77;;;;;19.40;101513.00;;;;2073026;28;20214;-64
2023/04/19 00:15:01;;;;;;;3.60;3.30;;;;;19.40;101506.00;;;;2064464;28;20249;-64
2023/04/19 00:16:02;;;;;;;3.77;3.47;;;;;19.40;101511.00;;;;2062880;28;20332;-64
2023/04/19 00:17:02;;;;;;;3.90;3.60;;;;;19.50;101515.00;;;;2072699;28;20216;-64
2023/04/19 00:18:02;;;;;;;4.10;3.70;;;;;19.50;101517.00;;;;2073473;28;20771;-64
2023/04/19 00:19:03;;;;;;;3.70;3.40;;;;;19.40;101512.00;;;;2079528;28;20758;-64
2023/04/19 00:20:04;;;;;;;3.90;3.60;;;;;19.40;101502.00;;;;2080411;28;20274;-64
2023/04/19 00:21:05;;;;;;;3.75;3.45;;;;;19.40;101502.00;;;;2079286;28;20649;-64
2023/04/19 00:22:05;;;;;;;4.07;3.77;;;;;19.40;101515.00;;;;2080224;28;20221;-64
2023/04/19 00:23:05;;;;;;;4.10;3.80;;;;;19.40;101521.00;;;;2079590;28;20623;-64
2023/04/19 00:24:06;;;;;;;3.87;3.57;;;;;19.50;101517.00;;;;2080233;28;20213;-64
2023/04/19 00:25:06;;;;;;;3.90;3.60;;;;;19.50;101518.00;;;;2080545;28;20267;-64
2023/04/19 00:26:07;;;;;;;4.03;3.73;;;;;19.50;101509.00;;;;2079725;28;20213;-64
2023/04/19 00:27:07;;;;;;;3.57;3.27;;;;;19.50;101517.00;;;;2080557;28;20266;-64
2023/04/19 00:28:07;;;;;;;3.73;3.50;;;;;19.50;101514.00;;;;2079664;28;20236;-64
2023/04/19 00:29:08;;;;;;;3.93;3.63;;;;;19.50;101506.00;;;;2080079;28;20217;-64
2023/04/19 00:30:09;;;;;;;4.20;3.90;;;;;19.40;101508.00;;;;2079201;28;20229;-64
2023/04/19 00:31:09;;;;;;;4.67;4.27;;;;;19.50;101510.00;;;;2080350;28;20212;-64
2023/04/19 00:32:10;;;;;;;4.03;3.73;;;;;19.50;101504.00;;;;2080020;28;20714;-64
2023/04/19 00:33:11;;;;;;;3.97;3.67;;;;;19.40;101506.00;;;;2079693;28;20278;-64
2023/04/19 00:34:11;;;;;;;3.85;3.55;;;;;19.40;101498.00;;;;2079822;28;20688;-64
2023/04/19 00:35:12;;;;;;;4.50;4.20;;;;;19.40;101509.00;;;;2078884;28;20206;-64
2023/04/19 00:36:13;;;;;;;4.70;4.30;;;;;19.40;101509.00;;;;2080293;28;20259;-64
2023/04/19 00:37:13;;;;;;;4.03;3.73;;;;;19.40;101505.00;;;;2079564;28;20495;-64
2023/04/19 00:38:14;;;;;;;3.60;3.30;;;;;19.40;101506.00;;;;2080364;28;20201;-64
2023/04/19 00:39:14;;;;;;;4.43;4.03;;;;;19.40;101510.00;;;;2080200;28;20217;-64
2023/04/19 00:40:14;;;;;;;3.10;2.90;;;;;19.40;101492.00;;;;2079088;28;20256;-64
2023/04/19 00:41:15;;;;;;;3.73;3.43;;;;;19.40;101511.00;;;;2080346;28;20205;-64
2023/04/19 00:42:15;;;;;;;3.97;3.67;;;;;19.40;101508.00;;;;2082205;28;20303;-64
2023/04/19 00:43:19;;;;;;;3.20;3.00;;;;;19.40;101513.00;;;;2080404;28;20233;-63
2023/04/19 00:44:19;;;;;;;4.07;3.70;;;;;19.40;101512.00;;;;2070675;28;20646;-64
2023/04/19 00:45:20;;;;;;;4.43;4.03;;;;;19.40;101504.00;;;;2071741;28;20721;-64
2023/04/19 00:46:20;;;;;;;4.00;3.70;;;;;19.40;101517.00;;;;2079998;28;20712;-64
2023/04/19 00:47:21;;;;;;;4.57;4.17;;;;;19.40;101503.00;;;;2079454;28;20205;-64
2023/04/19 00:48:21;;;;;;;3.80;3.60;;;;;19.40;101508.00;;;;2063948;28;20226;-64
2023/04/19 00:49:22;;;;;;;3.93;3.63;;;;;19.40;101517.00;;;;2064161;28;20232;-64
2023/04/19 00:50:22;;;;;;;3.70;3.40;;;;;19.50;101507.00;;;;2076183;28;20400;-64
2023/04/19 00:51:22;;;;;;;4.20;3.90;;;;;19.40;101507.00;;;;2081051;28;20246;-64
2023/04/19 00:52:23;;;;;;;4.60;4.20;;;;;19.40;101507.00;;;;2072051;28;20236;-64
2023/04/19 00:53:23;;;;;;;3.97;3.70;;;;;19.40;101508.00;;;;2071487;28;20228;-64
2023/04/19 00:54:23;;;;;;;3.77;3.47;;;;;19.40;101512.00;;;;2080252;28;20226;-64
2023/04/19 00:55:24;;;;;;;4.13;3.70;;;;;19.40;101508.00;;;;2071492;28;20293;-64
2023/04/19 00:56:24;;;;;;;4.03;3.73;;;;;19.40;101509.00;;;;2064398;28;20269;-64
2023/04/19 00:57:24;;;;;;;4.17;3.87;;;;;19.40;101496.00;;;;2071369;28;20599;-64
2023/04/19 00:58:27;;;;;;;4.10;3.80;;;;;19.40;101494.00;;;;2079444;28;20295;-64
2023/04/19 00:59:27;;;;;;;4.15;3.85;;;;;19.40;101510.00;;;;2080148;28;20235;-64
2023/04/19 01:00:27;;;;;;;4.17;3.87;;;;;19.50;101510.00;;;;2079969;28;20303;-64
2023/04/19 01:01:28;;;;;;;4.30;4.00;;;;;19.40;101493.00;;;;2079441;28;20727;-64
2023/04/19 01:02:28;;;;;;;4.07;3.73;;;;;19.40;101509.00;;;;2079849;28;20216;-64
2023/04/19 01:03:29;;;;;;;4.10;3.80;;;;;19.40;101502.00;;;;2079354;28;20271;-64
2023/04/19 01:04:29;;;;;;;4.33;4.03;;;;;19.40;101509.00;;;;2080251;28;20209;-64
2023/04/19 01:05:30;;;;;;;4.70;4.20;;;;;19.40;101507.00;;;;2079630;28;20212;-64
2023/04/19 01:06:30;;;;;;;4.37;4.00;;;;;19.40;101512.00;;;;2071463;28;20589;-64
2023/04/19 01:07:32;;;;;;;4.70;4.30;;;;;19.40;101511.00;;;;2072506;28;20991;-64
2023/04/19 01:08:32;;;;;;;3.78;3.50;;;;;19.40;101502.00;;;;2078922;28;20212;-64
2023/04/19 01:09:33;;;;;;;3.90;3.60;;;;;19.40;101491.00;;;;2071676;28;20310;-64
2023/04/19 01:10:34;;;;;;;4.23;3.93;;;;;19.40;101502.00;;;;2062659;28;20215;-64
2023/04/19 01:11:34;;;;;;;4.37;3.97;;;;;19.40;101501.00;;;;2066158;28;20731;-64
2023/04/19 01:12:34;;;;;;;3.87;3.57;;;;;19.40;101501.00;;;;2073983;28;20214;-64
2023/04/19 01:13:35;;;;;;;3.90;3.60;;;;;19.40;101494.00;;;;2079977;28;20239;-64
2023/04/19 01:14:35;;;;;;;4.37;4.00;;;;;19.40;101487.00;;;;2078887;28;20228;-64
2023/04/19 01:15:35;;;;;;;3.80;3.50;;;;;19.40;101498.00;;;;2069632;28;20207;-64
2023/04/19 01:16:36;;;;;;;4.17;3.77;;;;;19.40;101489.00;;;;2071236;28;20209;-64
2023/04/19 01:17:36;;;;;;;3.83;3.53;;;;;19.40;101491.00;;;;2078661;28;20554;-64
2023/04/19 01:18:38;;;;;;;3.70;3.40;;;;;19.40;101491.00;;;;2079976;28;20204;-64
2023/04/19 01:19:38;;;;;;;4.28;3.88;;;;;19.40;101491.00;;;;2070274;28;20698;-64
2023/04/19 01:20:39;;;;;;;4.10;3.80;;;;;19.40;101496.00;;;;2071317;28;20199;-64
2023/04/19 01:21:41;;;;;;;3.93;3.63;;;;;19.40;101484.00;;;;2079539;28;20212;-64
2023/04/19 01:22:41;;;;;;;3.67;3.38;;;;;19.40;101491.00;;;;2079153;28;20288;-64
2023/04/19 01:23:41;;;;;;;4.70;4.30;;;;;19.40;101492.00;;;;2080022;28;20213;-64
2023/04/19 01:24:42;;;;;;;3.60;3.30;;;;;19.40;101486.00;;;;2078957;28;20306;-64
2023/04/19 01:25:42;;;;;;;3.70;3.40;;;;;19.40;101491.00;;;;2079990;28;20627;-64
2023/04/19 01:26:42;;;;;;;4.40;4.10;;;;;19.40;101486.00;;;;2079052;28;21074;-64
2023/04/19 01:27:43;;;;;;;3.87;3.57;;;;;19.40;101483.00;;;;2079986;28;20728;-64
2023/04/19 01:28:43;;;;;;;4.10;3.80;;;;;19.40;101478.00;;;;2079734;28;20731;-64
2023/04/19 01:29:43;;;;;;;4.27;3.97;;;;;19.40;101482.00;;;;2078499;28;20295;-64
2023/04/19 01:30:44;;;;;;;4.07;3.37;;;;;19.40;101485.00;;;;2079936;28;20265;-64
2023/04/19 01:31:48;;;;;;;3.93;3.63;;;;;19.40;101488.00;;;;2078895;28;20278;-64
2023/04/19 01:32:48;;;;;;;3.70;3.40;;;;;19.40;101481.00;;;;2079679;28;20217;-64
2023/04/19 01:33:48;;;;;;;3.97;3.67;;;;;19.40;101484.00;;;;2079177;28;20223;-64
2023/04/19 01:34:49;;;;;;;4.00;3.70;;;;;19.40;101481.00;;;;2079876;28;20238;-63
2023/04/19 01:35:49;;;;;;;3.83;3.50;;;;;19.40;101483.00;;;;2079126;28;20205;-64
2023/04/19 01:36:50;;;;;;;4.23;3.93;;;;;19.30;101481.00;;;;2079812;28;20456;-64
2023/04/19 01:38:33;;;;;;;4.00;3.70;;;;;19.40;101486.00;;;;2079441;28;20233;-64
2023/04/19 01:39:34;;;;;;;4.35;4.00;;;;;19.40;101480.00;;;;2075710;28;20751;-64
2023/04/19 01:40:34;;;;;;;4.30;4.00;;;;;19.40;101490.00;;;;2078709;28;20212;-64
2023/04/19 01:42:29;;;;;;;4.00;3.70;;;;;19.40;101436.00;;;;2077323;28;20695;-64
2023/04/19 01:43:29;;;;;;;4.00;3.70;;;;;19.40;101466.00;;;;2076966;28;20296;-64
2023/04/19 01:44:29;;;;;;;4.23;3.90;;;;;19.40;101479.00;;;;2079632;28;20372;-64
2023/04/19 01:45:32;;;;;;;4.00;3.70;;;;;19.40;101476.00;;;;2081506;28;20217;-64
2023/04/19 01:46:32;;;;;;;4.13;3.72;;;;;19.40;101483.00;;;;2084241;28;20220;-64
2023/04/19 01:47:32;;;;;;;4.47;4.07;;;;;19.40;101478.00;;;;2069602;28;20213;-64
2023/04/19 01:48:33;;;;;;;4.10;3.80;;;;;19.30;101472.00;;;;2079258;28;20336;-64
2023/04/19 01:49:33;;;;;;;3.73;3.43;;;;;19.40;101478.00;;;;2078902;28;20712;-64
2023/04/19 01:50:33;;;;;;;4.43;4.13;;;;;19.40;101481.00;;;;2078996;28;20224;-64
2023/04/19 01:51:34;;;;;;;4.30;4.00;;;;;19.40;101485.00;;;;2079569;28;20253;-64
2023/04/19 01:52:34;;;;;;;4.20;3.80;;;;;19.40;101481.00;;;;2079043;28;20217;-64
2023/04/19 01:53:34;;;;;;;4.13;3.83;;;;;19.30;101480.00;;;;2079916;28;20201;-64
2023/04/19 01:54:34;;;;;;;4.17;3.77;;;;;19.40;101477.00;;;;2079828;28;20343;-64
2023/04/19 01:55:35;;;;;;;4.00;3.70;;;;;19.30;101478.00;;;;2078771;28;20205;-64
2023/04/19 01:56:35;;;;;;;3.47;3.17;;;;;19.30;101480.00;;;;2079935;28;20560;-64
2023/04/19 01:57:35;;;;;;;4.67;4.27;;;;;19.30;101479.00;;;;2078455;28;20205;-64
2023/04/19 01:58:36;;;;;;;3.83;3.53;;;;;19.40;101480.00;;;;2079831;28;20233;-64
2023/04/19 01:59:36;;;;;;;4.50;4.13;;;;;19.40;101482.00;;;;2078906;28;20216;-64
2023/04/19 02:00:36;;;;;;;4.30;3.93;;;;;19.30;101477.00;;;;2079886;28;20217;-64
2023/04/19 02:01:37;;;;;;;4.47;4.13;;;;;19.30;101471.00;;;;2079390;28;20236;-64
2023/04/19 02:02:37;;;;;;;3.90;3.60;;;;;19.40;101478.00;;;;2078723;28;20204;-64
2023/04/19 02:03:38;;;;;;;4.80;3.90;;;;;19.30;101475.00;;;;2079624;28;20213;-64
2023/04/19 02:04:38;;;;;;;4.20;3.90;;;;;19.30;101476.00;;;;2079045;28;20209;-64
2023/04/19 02:05:39;;;;;;;4.30;3.90;;;;;19.40;101462.00;;;;2079620;28;20452;-64
2023/04/19 02:06:39;;;;;;;3.97;3.67;;;;;19.40;101470.00;;;;2078123;28;20687;-63
2023/04/19 02:07:39;;;;;;;4.43;4.03;;;;;19.40;101461.00;;;;2079124;28;20209;-64
2023/04/19 02:08:40;;;;;;;4.20;3.90;;;;;19.40;101475.00;;;;2079462;28;20651;-64
2023/04/19 02:09:41;;;;;;;4.00;3.70;;;;;19.40;101475.00;;;;2078729;28;20229;-64
2023/04/19 02:10:41;;;;;;;4.20;3.90;;;;;19.40;101463.00;;;;2079525;28;20205;-64
2023/04/19 02:11:41;;;;;;;4.70;4.30;;;;;19.40;101476.00;;;;2078589;28;20197;-64
2023/04/19 02:12:42;;;;;;;4.60;4.00;;;;;19.30;101468.00;;;;2079731;28;20209;-64
2023/04/19 02:13:42;;;;;;;4.57;4.20;;;;;19.30;101470.00;;;;2079944;28;20216;-64
2023/04/19 02:14:42;;;;;;;4.40;4.00;;;;;19.40;101473.00;;;;2082771;28;20320;-64
2023/04/19 02:15:42;;;;;;;3.97;3.67;;;;;19.30;101484.00;;;;2078883;28;20206;-64
2023/04/19 02:16:43;;;;;;;3.70;3.40;;;;;19.30;101473.00;;;;2078146;28;20214;-64
2023/04/19 02:17:45;;;;;;;3.80;3.50;;;;;19.30;101472.00;;;;2078979;28;20233;-64
2023/04/19 02:18:47;;;;;;;3.80;3.50;;;;;19.30;101451.00;;;;2077438;28;20213;-64
2023/04/19 02:19:47;;;;;;;3.92;3.60;;;;;19.40;101470.00;;;;2079410;28;20201;-63
2023/04/19 02:20:47;;;;;;;4.00;3.70;;;;;19.40;101469.00;;;;2078744;28;20794;-64
2023/04/19 02:21:48;;;;;;;4.10;3.80;;;;;19.40;101463.00;;;;2079433;28;20258;-64
2023/04/19 02:22:48;;;;;;;4.20;3.80;;;;;19.40;101469.00;;;;2071722;28;20268;-64
2023/04/19 02:23:48;;;;;;;4.00;3.60;;;;;19.40;101471.00;;;;2075564;28;20283;-64
2023/04/19 02:24:49;;;;;;;3.93;3.60;;;;;19.40;101457.00;;;;2078469;28;20209;-64
2023/04/19 02:25:49;;;;;;;4.53;4.13;;;;;19.30;101476.00;;;;2080457;28;20234;-64
2023/04/19 02:26:50;;;;;;;3.50;3.20;;;;;19.30;101474.00;;;;2070738;28;20217;-64
2023/04/19 02:27:50;;;;;;;3.93;3.63;;;;;19.30;101461.00;;;;2077785;28;20445;-64
2023/04/19 02:28:51;;;;;;;4.10;3.80;;;;;19.40;101474.00;;;;2078870;28;20219;-64
2023/04/19 02:29:52;;;;;;;4.43;4.07;;;;;19.40;101474.00;;;;2079183;28;20198;-64
2023/04/19 02:30:52;;;;;;;3.57;3.27;;;;;19.40;101476.00;;;;2078688;28;20220;-64
2023/04/19 02:31:52;;;;;;;4.40;4.00;;;;;19.30;101472.00;;;;2079130;28;20205;-64
2023/04/19 02:32:53;;;;;;;4.33;3.93;;;;;19.30;101476.00;;;;2078889;28;20214;-64
2023/04/19 02:33:54;;;;;;;4.05;3.65;;;;;19.30;101471.00;;;;2079386;28;20224;-64
2023/04/19 02:34:54;;;;;;;3.90;3.60;;;;;19.30;101475.00;;;;2078168;28;20217;-64
2023/04/19 02:35:54;;;;;;;3.70;3.40;;;;;19.30;101481.00;;;;2078597;28;20213;-64
2023/04/19 02:36:55;;;;;;;4.07;3.67;;;;;19.30;101460.00;;;;2078683;28;20241;-64
2023/04/19 02:37:55;;;;;;;3.83;3.53;;;;;19.30;101481.00;;;;2078243;28;20221;-64
2023/04/19 02:38:58;;;;;;;4.67;4.20;;;;;19.30;101480.00;;;;2079368;28;20275;-64
2023/04/19 02:39:58;;;;;;;4.18;3.88;;;;;19.30;101482.00;;;;2078498;28;20225;-64
2023/04/19 02:41:00;;;;;;;3.97;3.67;;;;;19.30;101485.00;;;;2079417;28;20589;-63
2023/04/19 02:42:01;;;;;;;4.20;3.80;;;;;19.30;101486.00;;;;2078536;28;20220;-64
2023/04/19 02:43:02;;;;;;;4.07;3.77;;;;;19.30;101477.00;;;;2079460;28;20221;-64
2023/04/19 02:44:02;;;;;;;4.13;3.80;;;;;19.40;101481.00;;;;2078473;28;20712;-64
2023/04/19 02:45:03;;;;;;;4.10;3.77;;;;;19.30;101471.00;;;;2070005;28;20304;-64
2023/04/19 02:46:03;;;;;;;4.30;3.90;;;;;19.30;101471.00;;;;2078030;28;20221;-64
2023/04/19 02:47:04;;;;;;;3.77;3.47;;;;;19.30;101481.00;;;;2078280;28;20245;-64
2023/04/19 02:48:04;;;;;;;4.30;4.00;;;;;19.30;101478.00;;;;2079484;28;20762;-64
2023/04/19 02:49:05;;;;;;;3.67;3.37;;;;;19.30;101471.00;;;;2078576;28;20205;-64
2023/04/19 02:50:05;;;;;;;4.60;3.70;;;;;19.30;101464.00;;;;2079190;28;20218;-64
2023/04/19 02:51:06;;;;;;;4.43;4.00;;;;;19.30;101470.00;;;;2079156;28;20232;-64
2023/04/19 02:52:06;;;;;;;4.57;4.20;;;;;19.30;101477.00;;;;2078616;28;20225;-64
2023/04/19 02:53:07;;;;;;;3.90;3.60;;;;;19.30;101466.00;;;;2079222;28;20233;-64
2023/04/19 02:54:07;;;;;;;4.50;4.20;;;;;19.30;101468.00;;;;2078621;28;20233;-64
2023/04/19 02:55:08;;;;;;;4.60;4.20;;;;;19.30;101453.00;;;;2079480;28;20206;-64
2023/04/19 02:56:08;;;;;;;3.67;3.37;;;;;19.30;101470.00;;;;2078645;28;20209;-64
2023/04/19 02:57:08;;;;;;;4.03;3.73;;;;;19.30;101470.00;;;;2079212;28;20236;-64
2023/04/19 02:58:09;;;;;;;4.10;3.70;;;;;19.30;101463.00;;;;2079105;28;20688;-64
2023/04/19 02:59:09;;;;;;;4.10;3.80;;;;;19.30;101470.00;;;;2078704;28;20221;-64
2023/04/19 03:00:10;;;;;;;3.63;3.33;;;;;19.30;101464.00;;;;2079201;28;20209;-64
2023/04/19 03:01:10;;;;;;;4.00;3.60;;;;;19.30;101462.00;;;;2075086;28;20197;-64
2023/04/19 03:02:11;;;;;;;4.50;4.10;;;;;19.30;101465.00;;;;2079133;28;20228;-64
2023/04/19 03:03:11;;;;;;;4.20;3.80;;;;;19.30;101459.00;;;;2079232;28;20205;-64
2023/04/19 03:04:11;;;;;;;3.70;3.40;;;;;19.30;101461.00;;;;2079056;28;20555;-64
2023/04/19 03:05:12;;;;;;;4.23;3.83;;;;;19.30;101456.00;;;;2079453;28;20205;-64
2023/04/19 03:06:12;;;;;;;4.00;3.70;;;;;19.30;101458.00;;;;2079228;28;20289;-64
2023/04/19 03:07:13;;;;;;;3.70;3.40;;;;;19.30;101457.00;;;;2076935;28;20931;-64
2023/04/19 03:08:13;;;;;;;3.90;3.60;;;;;19.30;101453.00;;;;2078446;28;20484;-64
2023/04/19 03:09:13;;;;;;;4.50;4.13;;;;;19.30;101462.00;;;;2077628;28;20205;-64
2023/04/19 03:10:14;;;;;;;4.17;3.83;;;;;19.30;101456.00;;;;2078381;28;20221;-64
2023/04/19 03:11:15;;;;;;;3.53;3.10;;;;;19.30;101466.00;;;;2078890;28;20267;-64
2023/04/19 03:12:15;;;;;;;3.90;3.60;;;;;19.30;101469.00;;;;2085301;28;20219;-64
2023/04/19 03:13:15;;;;;;;4.00;3.70;;;;;19.30;101460.00;;;;2079193;28;20255;-64
2023/04/19 03:14:16;;;;;;;3.80;3.50;;;;;19.30;101457.00;;;;2082734;28;20231;-64
2023/04/19 03:15:17;;;;;;;4.53;4.13;;;;;19.30;101459.00;;;;2079292;28;20217;-64
2023/04/19 03:16:17;;;;;;;3.80;3.50;;;;;19.30;101454.00;;;;2079379;28;20217;-64
2023/04/19 03:17:17;;;;;;;4.00;3.60;;;;;19.30;101456.00;;;;2079313;28;20217;-64
2023/04/19 03:18:18;;;;;;;3.33;3.13;;;;;19.30;101465.00;;;;2078768;28;20244;-64
2023/04/19 03:19:18;;;;;;;3.70;3.40;;;;;19.30;101462.00;;;;2078833;28;20208;-64
2023/04/19 03:20:19;;;;;;;4.00;3.70;;;;;19.30;101464.00;;;;2079026;28;20236;-64
2023/04/19 03:21:20;;;;;;;3.65;3.35;;;;;19.30;101459.00;;;;2078420;28;20212;-64
2023/04/19 03:22:20;;;;;;;4.13;3.83;;;;;19.30;101458.00;;;;2079036;28;20312;-64
2023/04/19 03:23:20;;;;;;;3.83;3.53;;;;;19.30;101459.00;;;;2078515;28;20220;-64
2023/04/19 03:24:28;;;;;;;4.03;3.73;;;;;19.30;101454.00;;;;2079251;28;20198;-64
2023/04/19 03:25:28;;;;;;;3.85;3.55;;;;;19.30;101453.00;;;;2078547;28;20239;-64
2023/04/19 03:26:28;;;;;;;4.43;4.03;;;;;19.30;101452.00;;;;2079266;28;20209;-64
2023/04/19 03:27:29;;;;;;;3.97;3.67;;;;;19.30;101456.00;;;;2079335;28;20237;-64
2023/04/19 03:28:29;;;;;;;4.03;3.63;;;;;19.30;101462.00;;;;2078350;28;20227;-64
2023/04/19 03:29:30;;;;;;;3.67;3.37;;;;;19.30;101452.00;;;;2079202;28;20306;-64
2023/04/19 03:30:30;;;;;;;4.00;3.60;;;;;19.30;101455.00;;;;2077599;28;20741;-64
2023/04/19 03:31:30;;;;;;;3.93;3.63;;;;;19.30;101454.00;;;;2078564;28;20246;-64
2023/04/19 03:32:31;;;;;;;3.57;3.37;;;;;19.30;101463.00;;;;2079156;28;21227;-64
2023/04/19 03:33:31;;;;;;;4.23;3.93;;;;;19.30;101462.00;;;;2083927;28;20650;-63
2023/04/19 03:34:31;;;;;;;3.70;3.40;;;;;19.30;101476.00;;;;2078327;28;20231;-64
2023/04/19 03:35:32;;;;;;;4.30;3.90;;;;;19.30;101460.00;;;;2081772;28;20217;-64
2023/04/19 03:36:32;;;;;;;3.70;3.40;;;;;19.30;101460.00;;;;2078246;28;20716;-64
2023/04/19 03:37:33;;;;;;;3.40;3.20;;;;;19.30;101457.00;;;;2078132;28;20988;-64
2023/04/19 03:38:33;;;;;;;3.70;3.40;;;;;19.30;101455.00;;;;2079095;28;20708;-64
2023/04/19 03:39:33;;;;;;;3.30;3.00;;;;;19.30;101458.00;;;;2077928;28;20214;-64
2023/04/19 03:40:36;;;;;;;3.83;3.40;;;;;19.30;101449.00;;;;2079188;28;20216;-64
2023/04/19 03:41:36;;;;;;;3.53;3.33;;;;;19.30;101454.00;;;;2078687;28;20286;-64
2023/04/19 03:42:36;;;;;;;3.50;3.20;;;;;19.30;101452.00;;;;2080425;28;20210;-64
2023/04/19 03:43:38;;;;;;;3.63;3.33;;;;;19.30;101460.00;;;;2078368;28;20225;-64
2023/04/19 03:44:38;;;;;;;3.70;3.40;;;;;19.30;101457.00;;;;2078416;28;20216;-64
2023/04/19 03:45:38;;;;;;;3.57;3.27;;;;;19.30;101450.00;;;;2079111;28;20209;-64
2023/04/19 03:46:39;;;;;;;3.57;3.27;;;;;19.30;101453.00;;;;2078832;28;20281;-64
2023/04/19 03:47:39;;;;;;;3.83;3.53;;;;;19.30;101451.00;;;;2078508;28;20259;-64
2023/04/19 03:48:39;;;;;;;3.47;3.17;;;;;19.30;101453.00;;;;2078920;28;20229;-64
2023/04/19 03:49:40;;;;;;;3.40;3.10;;;;;19.30;101448.00;;;;2078452;28;20206;-64
2023/04/19 03:50:40;;;;;;;3.40;3.10;;;;;19.30;101444.00;;;;2078921;28;20248;-64
2023/04/19 03:51:40;;;;;;;3.97;3.67;;;;;19.30;101449.00;;;;2078123;28;20209;-64
2023/04/19 03:52:41;;;;;;;3.53;3.23;;;;;19.30;101444.00;;;;2079092;28;20217;-64
2023/04/19 03:53:41;;;;;;;3.17;2.93;;;;;19.30;101440.00;;;;2078194;28;20216;-64
2023/04/19 03:54:42;;;;;;;3.53;3.23;;;;;19.30;101452.00;;;;2078444;28;20244;-64
2023/04/19 03:55:42;;;;;;;3.63;3.33;;;;;19.30;101450.00;;;;2078528;28;20796;-64
2023/04/19 03:56:42;;;;;;;4.00;3.70;;;;;19.30;101452.00;;;;2080975;28;20220;-64
2023/04/19 03:57:42;;;;;;;3.10;2.90;;;;;19.30;101447.00;;;;2078464;28;20224;-64
2023/04/19 03:58:43;;;;;;;3.70;3.40;;;;;19.30;101451.00;;;;2078362;28;20209;-64
2023/04/19 03:59:43;;;;;;;3.57;3.27;;;;;19.30;101444.00;;;;2079098;28;20232;-62
2023/04/19 04:00:43;;;;;;;3.43;3.13;;;;;19.30;101446.00;;;;2077624;28;20252;-64
2023/04/19 04:01:44;;;;;;;3.63;3.33;;;;;19.30;101445.00;;;;2079453;28;20275;-64
2023/04/19 04:02:45;;;;;;;3.47;3.17;;;;;19.30;101444.00;;;;2079155;28;20212;-64
2023/04/19 04:03:45;;;;;;;3.60;3.30;;;;;19.20;101438.00;;;;2078985;28;20488;-64
2023/04/19 04:04:45;;;;;;;4.00;3.70;;;;;19.30;101449.00;;;;2077527;28;20209;-64
2023/04/19 04:05:46;;;;;;;3.50;3.20;;;;;19.30;101446.00;;;;2078329;28;20217;-64
2023/04/19 04:06:46;;;;;;;3.23;3.00;;;;;19.30;101446.00;;;;2077636;28;20532;-64
2023/04/19 04:07:46;;;;;;;4.00;3.70;;;;;19.30;101449.00;;;;2079036;28;20819;-63
2023/04/19 04:08:47;;;;;;;3.37;3.07;;;;;19.30;101447.00;;;;2078802;28;20570;-64
2023/04/19 04:09:48;;;;;;;3.50;3.20;;;;;19.30;101454.00;;;;2078234;28;20217;-64
2023/04/19 04:10:48;;;;;;;3.00;2.72;;;;;19.30;101444.00;;;;2079736;28;20217;-63
2023/04/19 04:11:48;;;;;;;3.90;3.60;;;;;19.30;101447.00;;;;2083083;28;20710;-64
2023/04/19 04:12:49;;;;;;;3.67;3.37;;;;;19.30;101452.00;;;;2083299;28;20823;-64
2023/04/19 04:13:49;;;;;;;3.60;3.30;;;;;19.30;101452.00;;;;2080012;28;20210;-64
2023/04/19 04:14:49;;;;;;;3.27;3.07;;;;;19.30;101457.00;;;;2080408;28;20271;-64
2023/04/19 04:15:50;;;;;;;3.30;3.03;;;;;19.30;101451.00;;;;2080709;28;20221;-64
2023/04/19 04:16:50;;;;;;;3.37;3.07;;;;;19.30;101453.00;;;;2079894;28;20213;-64
2023/04/19 04:17:50;;;;;;;3.40;3.10;;;;;19.20;101457.00;;;;2080608;28;20216;-64
2023/04/19 04:18:51;;;;;;;3.00;2.73;;;;;19.30;101460.00;;;;2080025;28;20709;-64
2023/04/19 04:19:51;;;;;;;3.40;3.10;;;;;19.30;101456.00;;;;2080292;28;20761;-64
2023/04/19 04:20:51;;;;;;;3.37;3.07;;;;;19.30;101463.00;;;;2079769;28;20597;-64
2023/04/19 04:21:52;;;;;;;3.37;3.17;;;;;19.30;101449.00;;;;2080341;28;21092;-64
2023/04/19 04:22:52;;;;;;;3.90;3.60;;;;;19.30;101455.00;;;;2080609;28;20709;-64
2023/04/19 04:23:52;;;;;;;3.20;2.90;;;;;19.30;101456.00;;;;2079788;28;20232;-64
2023/04/19 04:24:53;;;;;;;3.30;3.10;;;;;19.30;101454.00;;;;2080496;28;20209;-64
2023/04/19 04:25:59;;;;;;;2.83;2.63;;;;;19.30;101455.00;;;;2079784;28;20213;-64
2023/04/19 04:27:02;;;;;;;3.33;3.03;;;;;19.20;101460.00;;;;2080506;28;20245;-64
2023/04/19 04:28:03;;;;;;;3.10;2.90;;;;;19.30;101463.00;;;;2081553;28;20213;-64
2023/04/19 04:29:04;;;;;;;3.42;3.13;;;;;19.30;101458.00;;;;2081469;28;20221;-64
2023/04/19 04:30:05;;;;;;;3.37;3.10;;;;;19.30;101465.00;;;;2080180;28;20218;-64
2023/04/19 04:31:05;;;;;;;3.33;3.08;;;;;19.30;101456.00;;;;2079612;28;20459;-64
2023/04/19 04:32:09;;;;;;;3.60;3.30;;;;;19.20;101459.00;;;;2078981;28;20573;-64
2023/04/19 04:33:10;;;;;;;3.40;3.10;;;;;19.30;101460.00;;;;2078999;28;20758;-64
2023/04/19 04:34:11;;;;;;;3.50;3.20;;;;;19.20;101460.00;;;;2080330;28;20214;-63
2023/04/19 04:35:11;;;;;;;4.03;2.80;;;;;19.20;101465.00;;;;2079735;28;20244;-64
2023/04/19 04:36:12;;;;;;;3.23;2.97;;;;;19.20;101462.00;;;;2080480;28;20213;-64
2023/04/19 04:37:12;;;;;;;3.10;2.90;;;;;19.20;101470.00;;;;2078769;28;20246;-64
2023/04/19 04:38:13;;;;;;;3.20;2.90;;;;;19.30;101465.00;;;;2079923;28;20448;-64
2023/04/19 04:39:13;;;;;;;3.10;2.90;;;;;19.30;101463.00;;;;2080255;28;20213;-64
2023/04/19 04:40:14;;;;;;;2.90;2.70;;;;;19.20;101469.00;;;;2083934;28;20630;-64
2023/04/19 04:41:15;;;;;;;3.42;3.15;;;;;19.30;101463.00;;;;2079576;28;20247;-64
2023/04/19 04:42:16;;;;;;;3.33;3.03;;;;;19.30;101469.00;;;;2079142;28;20216;-64
2023/04/19 04:43:16;;;;;;;3.40;3.10;;;;;19.20;101469.00;;;;2080401;28;20994;-64
2023/04/19 04:44:17;;;;;;;2.80;2.60;;;;;19.30;101470.00;;;;2079274;28;20505;-64
2023/04/19 04:45:17;;;;;;;3.27;2.97;;;;;19.30;101468.00;;;;2080371;28;20216;-64
2023/04/19 04:46:17;;;;;;;2.93;2.73;;;;;19.20;101465.00;;;;2080478;28;20212;-64
2023/04/19 04:47:18;;;;;;;3.40;3.10;;;;;19.20;101469.00;;;;2079964;28;20217;-64
2023/04/19 04:48:18;;;;;;;3.30;3.00;;;;;19.20;101465.00;;;;2080351;28;20626;-64
2023/04/19 04:49:18;;;;;;;3.33;3.13;;;;;19.20;101469.00;;;;2081363;28;20211;-64
2023/04/19 04:50:19;;;;;;;3.10;2.90;;;;;19.20;101463.00;;;;2080266;28;20213;-64
2023/04/19 04:51:19;;;;;;;3.70;3.40;;;;;19.20;101463.00;;;;2079621;28;20209;-64
2023/04/19 04:52:19;;;;;;;3.20;2.90;;;;;19.20;101466.00;;;;2080014;28;20244;-64
2023/04/19 04:53:20;;;;;;;2.90;2.70;;;;;19.20;101459.00;;;;2079749;28;20220;-64
2023/04/19 04:54:20;;;;;;;3.20;3.00;;;;;19.20;101467.00;;;;2079491;28;20749;-64
2023/04/19 04:55:21;;;;;;;3.20;2.90;;;;;19.20;101464.00;;;;2080414;28;20213;-64
2023/04/19 04:56:21;;;;;;;2.70;2.50;;;;;19.20;101459.00;;;;2079637;28;20249;-64
2023/04/19 04:57:21;;;;;;;2.80;2.60;;;;;19.20;101467.00;;;;2080306;28;20240;-64
2023/04/19 04:58:22;;;;;;;3.27;2.97;;;;;19.20;101462.00;;;;2078754;28;20219;-64
2023/04/19 04:59:22;;;;;;;3.00;2.80;;;;;19.20;101465.00;;;;2079655;28;20216;-64
2023/04/19 05:00:22;;;;;;;2.97;2.77;;;;;19.20;101462.00;;;;2080157;28;20757;-64
2023/04/19 05:01:23;;;;;;;3.50;3.20;;;;;19.20;101463.00;;;;2080541;28;20236;-64